Dundee Airport

Airport
ICAO code: 
EGPN
IATA Code: 
DND
Summary
ICAO Region: 
EUR
Territory: 
Location: 
, Scotland
Serving: 
Dundee
Elevation: 
17 ft
Coordinates: 
Aerial View: 
56° 27' 8.996" N, 3° 1' 32.999" W
Metar
Observation
EGPN 031620Z 23008KT 9999 FEW040 06/04 Q0994
Station
Dundee / Riverside
Date/Time
2021-12-03 16:20:00
Wind direction
230°
Wind speed
08 kts
Lowest cloud amount
few clouds
Temperature
6°C
Dew point
4°C
Humidity
86%
QNH
994 hPa
Weather condition
n/a

Runways

Designator Length Width Surface Rops
10/28 1400 30 ASP Yes/Yes
Airport map: 
Aerial View: 

SKYbrary Partners:

Safety knowledge contributed by: